sensor_id;sensor_type;location;lat;lon;timestamp;P1;durP1;ratioP1;P2;durP2;ratioP2
67986;SDS011;54767;53.800;15.956;2023-03-01T06:54:22;28.40;;;11.20;;
67986;SDS011;54767;53.800;15.956;2023-03-01T06:56:52;35.10;;;14.90;;
67986;SDS011;54767;53.800;15.956;2023-03-01T06:59:20;35.70;;;14.50;;
67986;SDS011;54767;53.800;15.956;2023-03-01T07:01:48;21.90;;;10.80;;
67986;SDS011;54767;53.800;15.956;2023-03-01T07:04:17;26.40;;;9.90;;
67986;SDS011;54767;53.800;15.956;2023-03-01T07:06:45;23.20;;;10.30;;
67986;SDS011;54767;53.800;15.956;2023-03-01T07:09:13;23.20;;;10.10;;
67986;SDS011;54767;53.800;15.956;2023-03-01T07:11:41;21.50;;;10.30;;
67986;SDS011;54767;53.800;15.956;2023-03-01T07:14:09;18.90;;;9.60;;
67986;SDS011;54767;53.800;15.956;2023-03-01T07:16:37;22.90;;;10.30;;
67986;SDS011;54767;53.800;15.956;2023-03-01T07:19:05;21.70;;;9.80;;
67986;SDS011;54767;53.800;15.956;2023-03-01T07:21:33;18.80;;;9.90;;
67986;SDS011;54767;53.800;15.956;2023-03-01T07:24:01;20.70;;;10.20;;
67986;SDS011;54767;53.800;15.956;2023-03-01T07:26:30;20.10;;;9.60;;
67986;SDS011;54767;53.800;15.956;2023-03-01T07:28:59;20.10;;;9.30;;
67986;SDS011;54767;53.800;15.956;2023-03-01T07:31:27;19.30;;;9.70;;
67986;SDS011;54767;53.800;15.956;2023-03-01T07:33:56;20.70;;;9.50;;
67986;SDS011;54767;53.800;15.956;2023-03-01T07:36:24;17.60;;;8.50;;
67986;SDS011;54767;53.800;15.956;2023-03-01T07:38:53;17.70;;;9.60;;
67986;SDS011;54767;53.800;15.956;2023-03-01T07:41:23;16.90;;;8.50;;
67986;SDS011;54767;53.800;15.956;2023-03-01T07:43:51;19.80;;;9.00;;
67986;SDS011;54767;53.800;15.956;2023-03-01T07:46:19;19.70;;;8.60;;
67986;SDS011;54767;53.800;15.956;2023-03-01T07:48:47;18.20;;;8.40;;
67986;SDS011;54767;53.800;15.956;2023-03-01T07:51:16;17.10;;;9.00;;
67986;SDS011;54767;53.800;15.956;2023-03-01T07:53:46;17.30;;;8.70;;
67986;SDS011;54767;53.800;15.956;2023-03-01T07:58:45;18.80;;;9.20;;
67986;SDS011;54767;53.800;15.956;2023-03-01T08:01:16;19.90;;;9.70;;
67986;SDS011;54767;53.800;15.956;2023-03-01T08:03:46;18.40;;;9.70;;
67986;SDS011;54767;53.800;15.956;2023-03-01T08:06:16;20.00;;;9.20;;
67986;SDS011;54767;53.800;15.956;2023-03-01T08:08:45;19.20;;;9.30;;
67986;SDS011;54767;53.800;15.956;2023-03-01T08:11:14;21.20;;;9.90;;
67986;SDS011;54767;53.800;15.956;2023-03-01T08:13:43;18.00;;;9.80;;
67986;SDS011;54767;53.800;15.956;2023-03-01T08:16:12;17.90;;;9.50;;
67986;SDS011;54767;53.800;15.956;2023-03-01T08:18:42;18.90;;;10.10;;
67986;SDS011;54767;53.800;15.956;2023-03-01T08:21:15;22.30;;;9.60;;
67986;SDS011;54767;53.800;15.956;2023-03-01T08:23:44;21.20;;;10.00;;
67986;SDS011;54767;53.800;15.956;2023-03-01T08:26:14;25.10;;;11.20;;
67986;SDS011;54767;53.800;15.956;2023-03-01T08:28:47;25.10;;;11.10;;
67986;SDS011;54767;53.800;15.956;2023-03-01T08:33:56;21.40;;;10.70;;
67986;SDS011;54767;53.800;15.956;2023-03-01T08:36:28;19.80;;;10.60;;
67986;SDS011;54767;53.800;15.956;2023-03-01T08:38:58;19.30;;;10.00;;
67986;SDS011;54767;53.800;15.956;2023-03-01T08:41:27;20.70;;;10.50;;
67986;SDS011;54767;53.800;15.956;2023-03-01T08:43:56;20.50;;;10.30;;
67986;SDS011;54767;53.800;15.956;2023-03-01T08:46:28;19.20;;;10.30;;
67986;SDS011;54767;53.800;15.956;2023-03-01T08:48:58;18.60;;;9.90;;
67986;SDS011;54767;53.800;15.956;2023-03-01T08:51:27;19.60;;;10.50;;
67986;SDS011;54767;53.800;15.956;2023-03-01T08:53:56;18.60;;;10.00;;
67986;SDS011;54767;53.800;15.956;2023-03-01T08:56:25;18.40;;;9.50;;
67986;SDS011;54767;53.800;15.956;2023-03-01T08:58:53;19.40;;;10.00;;
67986;SDS011;54767;53.800;15.956;2023-03-01T09:01:21;18.70;;;10.10;;
67986;SDS011;54767;53.800;15.956;2023-03-01T09:03:49;22.80;;;10.00;;
67986;SDS011;54767;53.800;15.956;2023-03-01T09:06:18;19.10;;;9.70;;
67986;SDS011;54767;53.800;15.956;2023-03-01T09:08:47;19.20;;;10.00;;
67986;SDS011;54767;53.800;15.956;2023-03-01T09:11:18;20.00;;;10.50;;
67986;SDS011;54767;53.800;15.956;2023-03-01T09:13:49;19.00;;;9.80;;
67986;SDS011;54767;53.800;15.956;2023-03-01T09:16:18;18.00;;;9.80;;
67986;SDS011;54767;53.800;15.956;2023-03-01T09:18:51;21.30;;;10.00;;
67986;SDS011;54767;53.800;15.956;2023-03-01T09:21:21;20.60;;;10.20;;
67986;SDS011;54767;53.800;15.956;2023-03-01T09:24:12;20.70;;;9.80;;
67986;SDS011;54767;53.800;15.956;2023-03-01T09:26:41;20.20;;;10.30;;
67986;SDS011;54767;53.800;15.956;2023-03-01T09:29:10;19.90;;;10.10;;
67986;SDS011;54767;53.800;15.956;2023-03-01T09:31:38;19.80;;;9.80;;
67986;SDS011;54767;53.800;15.956;2023-03-01T09:34:06;21.50;;;10.90;;
67986;SDS011;54767;53.800;15.956;2023-03-01T09:36:35;18.80;;;10.20;;
67986;SDS011;54767;53.800;15.956;2023-03-01T09:39:04;17.40;;;10.50;;
67986;SDS011;54767;53.800;15.956;2023-03-01T09:44:10;21.00;;;11.30;;
67986;SDS011;54767;53.800;15.956;2023-03-01T09:46:43;23.30;;;11.10;;
67986;SDS011;54767;53.800;15.956;2023-03-01T09:49:17;22.50;;;11.60;;
67986;SDS011;54767;53.800;15.956;2023-03-01T09:52:03;19.40;;;10.60;;
67986;SDS011;54767;53.800;15.956;2023-03-01T09:54:49;18.60;;;10.50;;
67986;SDS011;54767;53.800;15.956;2023-03-01T10:05:58;22.30;;;11.40;;
67986;SDS011;54767;53.800;15.956;2023-03-01T10:08:36;21.80;;;10.90;;
67986;SDS011;54767;53.800;15.956;2023-03-01T10:11:33;18.90;;;9.90;;
67986;SDS011;54767;53.800;15.956;2023-03-01T10:14:42;22.10;;;10.50;;
67986;SDS011;54767;53.800;15.956;2023-03-01T10:19:54;19.70;;;11.20;;
67986;SDS011;54767;53.800;15.956;2023-03-01T10:22:27;23.50;;;10.80;;
67986;SDS011;54767;53.800;15.956;2023-03-01T10:24:58;22.90;;;10.70;;
67986;SDS011;54767;53.800;15.956;2023-03-01T10:27:49;25.60;;;10.40;;
67986;SDS011;54767;53.800;15.956;2023-03-01T10:30:33;23.00;;;11.30;;
67986;SDS011;54767;53.800;15.956;2023-03-01T10:35:49;20.70;;;10.60;;
67986;SDS011;54767;53.800;15.956;2023-03-01T10:38:18;20.00;;;11.00;;
67986;SDS011;54767;53.800;15.956;2023-03-01T10:40:54;19.30;;;9.50;;
67986;SDS011;54767;53.800;15.956;2023-03-01T10:43:40;21.60;;;11.50;;
67986;SDS011;54767;53.800;15.956;2023-03-01T10:46:24;18.80;;;10.30;;
67986;SDS011;54767;53.800;15.956;2023-03-01T10:51:44;19.60;;;10.70;;
67986;SDS011;54767;53.800;15.956;2023-03-01T10:54:28;19.50;;;10.30;;
67986;SDS011;54767;53.800;15.956;2023-03-01T10:57:03;19.80;;;10.00;;
67986;SDS011;54767;53.800;15.956;2023-03-01T10:59:34;21.40;;;10.90;;
67986;SDS011;54767;53.800;15.956;2023-03-01T11:05:03;22.10;;;10.90;;
67986;SDS011;54767;53.800;15.956;2023-03-01T11:07:47;21.10;;;10.70;;
67986;SDS011;54767;53.800;15.956;2023-03-01T11:10:21;21.80;;;10.40;;
67986;SDS011;54767;53.800;15.956;2023-03-01T11:12:50;21.90;;;10.80;;
67986;SDS011;54767;53.800;15.956;2023-03-01T11:17:49;23.60;;;10.60;;
67986;SDS011;54767;53.800;15.956;2023-03-01T11:20:34;20.30;;;10.20;;
67986;SDS011;54767;53.800;15.956;2023-03-01T11:23:05;19.30;;;10.70;;
67986;SDS011;54767;53.800;15.956;2023-03-01T11:25:43;23.10;;;10.50;;
67986;SDS011;54767;53.800;15.956;2023-03-01T11:28:18;21.30;;;11.40;;
67986;SDS011;54767;53.800;15.956;2023-03-01T11:31:03;20.10;;;10.00;;
67986;SDS011;54767;53.800;15.956;2023-03-01T11:33:39;19.20;;;9.50;;
67986;SDS011;54767;53.800;15.956;2023-03-01T11:44:47;16.70;;;8.50;;
67986;SDS011;54767;53.800;15.956;2023-03-01T11:52:45;15.40;;;7.90;;
67986;SDS011;54767;53.800;15.956;2023-03-01T12:01:06;16.20;;;7.50;;
67986;SDS011;54767;53.800;15.956;2023-03-01T12:06:50;14.70;;;7.30;;
67986;SDS011;54767;53.800;15.956;2023-03-01T12:42:58;11.10;;;5.40;;
67986;SDS011;54767;53.800;15.956;2023-03-01T12:50:46;9.30;;;4.10;;
67986;SDS011;54767;53.800;15.956;2023-03-01T12:53:29;14.20;;;7.60;;
67986;SDS011;54767;53.800;15.956;2023-03-01T12:56:25;15.90;;;12.20;;
67986;SDS011;54767;53.800;15.956;2023-03-01T12:59:13;11.10;;;8.50;;
67986;SDS011;54767;53.800;15.956;2023-03-01T13:02:03;10.00;;;7.50;;
67986;SDS011;54767;53.800;15.956;2023-03-01T13:12:51;19.70;;;15.20;;
67986;SDS011;54767;53.800;15.956;2023-03-01T13:17:55;9.10;;;4.90;;
67986;SDS011;54767;53.800;15.956;2023-03-01T13:20:46;13.20;;;8.60;;
67986;SDS011;54767;53.800;15.956;2023-03-01T13:30:59;19.40;;;13.90;;
67986;SDS011;54767;53.800;15.956;2023-03-01T13:35:57;16.20;;;12.50;;
67986;SDS011;54767;53.800;15.956;2023-03-01T13:46:53;11.20;;;6.40;;
67986;SDS011;54767;53.800;15.956;2023-03-01T13:49:43;9.90;;;6.00;;
67986;SDS011;54767;53.800;15.956;2023-03-01T13:55:07;7.30;;;5.10;;
67986;SDS011;54767;53.800;15.956;2023-03-01T13:57:43;8.30;;;4.50;;
67986;SDS011;54767;53.800;15.956;2023-03-01T14:05:37;6.80;;;3.60;;
67986;SDS011;54767;53.800;15.956;2023-03-01T14:08:18;8.90;;;6.50;;
67986;SDS011;54767;53.800;15.956;2023-03-01T14:16:39;7.00;;;5.10;;
67986;SDS011;54767;53.800;15.956;2023-03-01T14:19:19;14.10;;;8.00;;
67986;SDS011;54767;53.800;15.956;2023-03-01T14:25:04;35.70;;;32.10;;
67986;SDS011;54767;53.800;15.956;2023-03-01T14:27:44;14.40;;;10.80;;
67986;SDS011;54767;53.800;15.956;2023-03-01T14:30:25;9.80;;;7.00;;
67986;SDS011;54767;53.800;15.956;2023-03-01T14:32:59;12.70;;;10.00;;
67986;SDS011;54767;53.800;15.956;2023-03-01T14:35:30;10.30;;;7.60;;
67986;SDS011;54767;53.800;15.956;2023-03-01T14:38:02;8.50;;;7.20;;
67986;SDS011;54767;53.800;15.956;2023-03-01T14:40:32;18.80;;;10.20;;
67986;SDS011;54767;53.800;15.956;2023-03-01T14:43:08;37.10;;;17.10;;
67986;SDS011;54767;53.800;15.956;2023-03-01T14:45:39;18.80;;;11.90;;
67986;SDS011;54767;53.800;15.956;2023-03-01T14:48:07;16.40;;;10.70;;
67986;SDS011;54767;53.800;15.956;2023-03-01T14:50:39;16.10;;;11.80;;
67986;SDS011;54767;53.800;15.956;2023-03-01T14:53:17;19.90;;;17.40;;
67986;SDS011;54767;53.800;15.956;2023-03-01T14:55:49;25.00;;;22.20;;
67986;SDS011;54767;53.800;15.956;2023-03-01T14:58:22;26.10;;;21.70;;
67986;SDS011;54767;53.800;15.956;2023-03-01T15:00:53;20.80;;;16.70;;
67986;SDS011;54767;53.800;15.956;2023-03-01T15:03:33;16.30;;;11.40;;
67986;SDS011;54767;53.800;15.956;2023-03-01T15:06:05;36.30;;;19.50;;
67986;SDS011;54767;53.800;15.956;2023-03-01T15:08:36;17.60;;;12.40;;
67986;SDS011;54767;53.800;15.956;2023-03-01T15:13:52;16.50;;;14.70;;
67986;SDS011;54767;53.800;15.956;2023-03-01T15:19:05;11.40;;;10.20;;
67986;SDS011;54767;53.800;15.956;2023-03-01T15:21:35;28.90;;;20.10;;
67986;SDS011;54767;53.800;15.956;2023-03-01T15:26:51;14.80;;;9.50;;
67986;SDS011;54767;53.800;15.956;2023-03-01T15:29:26;30.70;;;18.30;;
67986;SDS011;54767;53.800;15.956;2023-03-01T15:32:44;37.10;;;22.90;;
67986;SDS011;54767;53.800;15.956;2023-03-01T15:37:46;103.20;;;56.90;;
67986;SDS011;54767;53.800;15.956;2023-03-01T15:40:20;64.50;;;39.80;;
67986;SDS011;54767;53.800;15.956;2023-03-01T15:42:52;22.40;;;16.30;;
67986;SDS011;54767;53.800;15.956;2023-03-01T15:45:22;14.80;;;9.20;;
67986;SDS011;54767;53.800;15.956;2023-03-01T15:47:55;16.00;;;14.30;;
67986;SDS011;54767;53.800;15.956;2023-03-01T15:50:32;13.80;;;12.30;;
67986;SDS011;54767;53.800;15.956;2023-03-01T15:53:05;14.30;;;11.00;;
67986;SDS011;54767;53.800;15.956;2023-03-01T15:55:35;9.40;;;5.10;;
67986;SDS011;54767;53.800;15.956;2023-03-01T15:58:13;9.10;;;6.30;;
67986;SDS011;54767;53.800;15.956;2023-03-01T16:00:45;9.10;;;5.00;;
67986;SDS011;54767;53.800;15.956;2023-03-01T16:03:28;65.20;;;36.30;;
67986;SDS011;54767;53.800;15.956;2023-03-01T16:05:56;17.40;;;10.00;;
67986;SDS011;54767;53.800;15.956;2023-03-01T16:08:24;19.20;;;13.30;;
67986;SDS011;54767;53.800;15.956;2023-03-01T16:10:53;33.10;;;23.60;;
67986;SDS011;54767;53.800;15.956;2023-03-01T16:13:22;106.60;;;69.10;;
67986;SDS011;54767;53.800;15.956;2023-03-01T16:15:51;124.60;;;77.70;;
67986;SDS011;54767;53.800;15.956;2023-03-01T16:18:19;181.70;;;107.40;;
67986;SDS011;54767;53.800;15.956;2023-03-01T16:20:47;153.10;;;83.80;;
67986;SDS011;54767;53.800;15.956;2023-03-01T16:23:17;168.30;;;78.70;;
67986;SDS011;54767;53.800;15.956;2023-03-01T16:25:45;133.70;;;71.00;;
67986;SDS011;54767;53.800;15.956;2023-03-01T16:28:13;96.90;;;47.80;;
67986;SDS011;54767;53.800;15.956;2023-03-01T16:30:45;84.60;;;40.50;;
67986;SDS011;54767;53.800;15.956;2023-03-01T16:33:16;93.70;;;44.30;;
67986;SDS011;54767;53.800;15.956;2023-03-01T16:36:05;50.90;;;27.60;;
67986;SDS011;54767;53.800;15.956;2023-03-01T16:38:35;89.00;;;40.50;;
67986;SDS011;54767;53.800;15.956;2023-03-01T16:41:04;113.10;;;45.80;;
67986;SDS011;54767;53.800;15.956;2023-03-01T16:43:33;64.10;;;30.70;;
67986;SDS011;54767;53.800;15.956;2023-03-01T16:46:01;43.20;;;24.40;;
67986;SDS011;54767;53.800;15.956;2023-03-01T16:48:32;77.20;;;50.50;;
67986;SDS011;54767;53.800;15.956;2023-03-01T16:51:00;57.80;;;45.40;;
67986;SDS011;54767;53.800;15.956;2023-03-01T16:53:28;36.50;;;25.40;;
67986;SDS011;54767;53.800;15.956;2023-03-01T16:55:57;30.80;;;20.80;;
67986;SDS011;54767;53.800;15.956;2023-03-01T16:58:26;20.90;;;12.60;;
67986;SDS011;54767;53.800;15.956;2023-03-01T17:00:54;19.70;;;15.20;;
67986;SDS011;54767;53.800;15.956;2023-03-01T17:05:54;47.00;;;26.90;;
67986;SDS011;54767;53.800;15.956;2023-03-01T17:08:22;44.40;;;22.60;;
67986;SDS011;54767;53.800;15.956;2023-03-01T17:10:50;99.60;;;40.60;;
67986;SDS011;54767;53.800;15.956;2023-03-01T17:13:18;126.70;;;46.40;;
67986;SDS011;54767;53.800;15.956;2023-03-01T17:15:46;85.10;;;34.10;;
67986;SDS011;54767;53.800;15.956;2023-03-01T17:18:14;48.40;;;20.40;;
67986;SDS011;54767;53.800;15.956;2023-03-01T17:20:42;41.00;;;21.10;;
67986;SDS011;54767;53.800;15.956;2023-03-01T17:23:10;47.10;;;20.50;;
67986;SDS011;54767;53.800;15.956;2023-03-01T17:25:42;41.60;;;20.40;;
67986;SDS011;54767;53.800;15.956;2023-03-01T17:28:12;51.20;;;26.80;;
67986;SDS011;54767;53.800;15.956;2023-03-01T17:30:44;60.80;;;29.70;;
67986;SDS011;54767;53.800;15.956;2023-03-01T17:33:14;28.10;;;14.50;;
67986;SDS011;54767;53.800;15.956;2023-03-01T17:35:43;36.50;;;19.40;;
67986;SDS011;54767;53.800;15.956;2023-03-01T17:38:14;36.60;;;19.50;;
67986;SDS011;54767;53.800;15.956;2023-03-01T17:40:42;34.60;;;17.70;;
67986;SDS011;54767;53.800;15.956;2023-03-01T17:43:15;33.80;;;16.90;;
67986;SDS011;54767;53.800;15.956;2023-03-01T17:48:15;110.10;;;50.60;;
67986;SDS011;54767;53.800;15.956;2023-03-01T17:50:44;84.70;;;48.50;;
67986;SDS011;54767;53.800;15.956;2023-03-01T17:53:13;69.30;;;40.90;;
67986;SDS011;54767;53.800;15.956;2023-03-01T17:55:42;80.30;;;46.70;;
67986;SDS011;54767;53.800;15.956;2023-03-01T17:58:12;44.10;;;23.30;;
67986;SDS011;54767;53.800;15.956;2023-03-01T18:00:41;27.70;;;16.00;;
67986;SDS011;54767;53.800;15.956;2023-03-01T18:03:09;30.40;;;18.00;;
67986;SDS011;54767;53.800;15.956;2023-03-01T18:05:37;29.20;;;17.10;;
67986;SDS011;54767;53.800;15.956;2023-03-01T18:08:05;31.20;;;15.60;;
67986;SDS011;54767;53.800;15.956;2023-03-01T18:10:34;25.20;;;14.90;;
67986;SDS011;54767;53.800;15.956;2023-03-01T18:13:04;26.20;;;13.80;;
67986;SDS011;54767;53.800;15.956;2023-03-01T18:15:32;31.60;;;15.20;;
67986;SDS011;54767;53.800;15.956;2023-03-01T18:18:01;32.10;;;16.60;;
67986;SDS011;54767;53.800;15.956;2023-03-01T18:20:29;35.70;;;19.50;;
67986;SDS011;54767;53.800;15.956;2023-03-01T18:22:59;37.90;;;21.40;;
67986;SDS011;54767;53.800;15.956;2023-03-01T18:25:29;39.20;;;21.90;;
67986;SDS011;54767;53.800;15.956;2023-03-01T18:27:57;37.90;;;21.10;;
67986;SDS011;54767;53.800;15.956;2023-03-01T18:30:25;39.80;;;21.60;;
67986;SDS011;54767;53.800;15.956;2023-03-01T18:32:55;35.00;;;18.60;;
67986;SDS011;54767;53.800;15.956;2023-03-01T18:35:23;39.90;;;22.30;;
67986;SDS011;54767;53.800;15.956;2023-03-01T18:37:51;36.40;;;19.50;;
67986;SDS011;54767;53.800;15.956;2023-03-01T18:40:20;31.60;;;17.60;;
67986;SDS011;54767;53.800;15.956;2023-03-01T18:42:48;34.40;;;20.60;;
67986;SDS011;54767;53.800;15.956;2023-03-01T18:45:16;36.70;;;20.00;;
67986;SDS011;54767;53.800;15.956;2023-03-01T18:47:46;41.40;;;22.80;;
67986;SDS011;54767;53.800;15.956;2023-03-01T18:50:17;40.80;;;23.10;;
67986;SDS011;54767;53.800;15.956;2023-03-01T18:52:45;36.70;;;18.50;;
67986;SDS011;54767;53.800;15.956;2023-03-01T18:55:13;38.10;;;18.60;;
67986;SDS011;54767;53.800;15.956;2023-03-01T18:57:41;193.70;;;109.20;;
67986;SDS011;54767;53.800;15.956;2023-03-01T19:00:10;130.00;;;75.60;;
67986;SDS011;54767;53.800;15.956;2023-03-01T19:02:39;218.00;;;83.80;;
67986;SDS011;54767;53.800;15.956;2023-03-01T19:05:08;122.50;;;52.80;;
67986;SDS011;54767;53.800;15.956;2023-03-01T19:07:37;72.20;;;36.20;;
67986;SDS011;54767;53.800;15.956;2023-03-01T19:10:05;57.10;;;29.20;;
67986;SDS011;54767;53.800;15.956;2023-03-01T19:12:34;51.00;;;27.20;;
67986;SDS011;54767;53.800;15.956;2023-03-01T19:15:03;39.30;;;21.50;;
67986;SDS011;54767;53.800;15.956;2023-03-01T19:17:32;31.80;;;15.90;;
67986;SDS011;54767;53.800;15.956;2023-03-01T19:20:01;33.10;;;15.40;;
67986;SDS011;54767;53.800;15.956;2023-03-01T19:22:30;33.70;;;15.50;;
67986;SDS011;54767;53.800;15.956;2023-03-01T19:24:58;33.40;;;14.60;;
67986;SDS011;54767;53.800;15.956;2023-03-01T19:27:26;33.60;;;15.50;;
67986;SDS011;54767;53.800;15.956;2023-03-01T19:29:54;29.30;;;13.70;;
67986;SDS011;54767;53.800;15.956;2023-03-01T19:32:22;31.60;;;14.60;;
67986;SDS011;54767;53.800;15.956;2023-03-01T19:34:50;32.90;;;14.90;;
67986;SDS011;54767;53.800;15.956;2023-03-01T19:37:19;35.30;;;15.60;;
67986;SDS011;54767;53.800;15.956;2023-03-01T19:39:47;30.60;;;14.70;;
67986;SDS011;54767;53.800;15.956;2023-03-01T19:42:15;27.70;;;13.90;;
67986;SDS011;54767;53.800;15.956;2023-03-01T19:44:43;29.40;;;14.10;;
67986;SDS011;54767;53.800;15.956;2023-03-01T19:47:11;28.80;;;13.90;;
67986;SDS011;54767;53.800;15.956;2023-03-01T19:49:39;30.10;;;14.00;;
67986;SDS011;54767;53.800;15.956;2023-03-01T19:52:09;31.70;;;13.90;;
67986;SDS011;54767;53.800;15.956;2023-03-01T19:54:37;29.20;;;14.20;;
67986;SDS011;54767;53.800;15.956;2023-03-01T19:57:05;27.10;;;12.20;;
67986;SDS011;54767;53.800;15.956;2023-03-01T19:59:33;27.10;;;12.30;;
67986;SDS011;54767;53.800;15.956;2023-03-01T20:02:02;26.90;;;12.30;;
67986;SDS011;54767;53.800;15.956;2023-03-01T20:04:30;31.80;;;14.20;;
67986;SDS011;54767;53.800;15.956;2023-03-01T20:06:59;29.80;;;13.80;;
67986;SDS011;54767;53.800;15.956;2023-03-01T20:09:27;29.70;;;14.00;;
67986;SDS011;54767;53.800;15.956;2023-03-01T20:11:56;21.80;;;10.90;;
67986;SDS011;54767;53.800;15.956;2023-03-01T20:14:24;24.90;;;9.90;;
67986;SDS011;54767;53.800;15.956;2023-03-01T20:16:52;22.70;;;9.00;;
67986;SDS011;54767;53.800;15.956;2023-03-01T20:19:20;24.80;;;10.60;;
67986;SDS011;54767;53.800;15.956;2023-03-01T20:21:49;24.10;;;10.00;;
67986;SDS011;54767;53.800;15.956;2023-03-01T20:24:17;24.80;;;10.80;;
67986;SDS011;54767;53.800;15.956;2023-03-01T20:26:46;24.00;;;10.80;;
67986;SDS011;54767;53.800;15.956;2023-03-01T20:29:14;23.40;;;9.60;;
67986;SDS011;54767;53.800;15.956;2023-03-01T20:31:42;27.60;;;10.90;;
67986;SDS011;54767;53.800;15.956;2023-03-01T20:34:12;26.80;;;10.70;;
67986;SDS011;54767;53.800;15.956;2023-03-01T20:36:42;26.70;;;10.50;;
67986;SDS011;54767;53.800;15.956;2023-03-01T20:39:11;26.50;;;10.90;;
67986;SDS011;54767;53.800;15.956;2023-03-01T20:41:39;24.20;;;10.30;;
67986;SDS011;54767;53.800;15.956;2023-03-01T20:44:07;26.60;;;10.60;;
67986;SDS011;54767;53.800;15.956;2023-03-01T20:46:36;25.30;;;10.70;;
67986;SDS011;54767;53.800;15.956;2023-03-01T20:49:04;25.70;;;10.80;;
67986;SDS011;54767;53.800;15.956;2023-03-01T20:51:34;26.10;;;11.10;;
67986;SDS011;54767;53.800;15.956;2023-03-01T20:54:02;26.00;;;10.90;;
67986;SDS011;54767;53.800;15.956;2023-03-01T20:56:31;24.30;;;10.20;;
67986;SDS011;54767;53.800;15.956;2023-03-01T20:59:02;30.10;;;12.40;;
67986;SDS011;54767;53.800;15.956;2023-03-01T21:01:36;27.90;;;10.60;;
67986;SDS011;54767;53.800;15.956;2023-03-01T21:04:05;26.60;;;11.10;;
67986;SDS011;54767;53.800;15.956;2023-03-01T21:06:34;27.30;;;11.30;;
67986;SDS011;54767;53.800;15.956;2023-03-01T21:09:03;30.00;;;12.00;;
67986;SDS011;54767;53.800;15.956;2023-03-01T21:11:32;28.20;;;11.00;;
67986;SDS011;54767;53.800;15.956;2023-03-01T21:14:07;27.00;;;11.80;;
67986;SDS011;54767;53.800;15.956;2023-03-01T21:16:38;24.70;;;10.90;;
67986;SDS011;54767;53.800;15.956;2023-03-01T21:19:08;26.20;;;11.90;;
67986;SDS011;54767;53.800;15.956;2023-03-01T21:21:37;23.20;;;10.40;;
67986;SDS011;54767;53.800;15.956;2023-03-01T21:24:05;21.90;;;10.80;;
67986;SDS011;54767;53.800;15.956;2023-03-01T21:26:37;25.90;;;11.20;;
67986;SDS011;54767;53.800;15.956;2023-03-01T21:29:06;24.60;;;10.60;;
67986;SDS011;54767;53.800;15.956;2023-03-01T21:31:34;22.10;;;10.40;;
67986;SDS011;54767;53.800;15.956;2023-03-01T21:34:03;21.90;;;10.70;;
67986;SDS011;54767;53.800;15.956;2023-03-01T21:37:19;22.50;;;10.40;;
67986;SDS011;54767;53.800;15.956;2023-03-01T21:39:49;19.60;;;9.80;;
67986;SDS011;54767;53.800;15.956;2023-03-01T21:42:17;19.60;;;10.40;;
67986;SDS011;54767;53.800;15.956;2023-03-01T21:44:45;21.40;;;10.90;;
67986;SDS011;54767;53.800;15.956;2023-03-01T21:47:13;18.70;;;9.80;;
67986;SDS011;54767;53.800;15.956;2023-03-01T21:49:42;18.00;;;9.40;;
67986;SDS011;54767;53.800;15.956;2023-03-01T21:52:10;18.70;;;9.10;;
67986;SDS011;54767;53.800;15.956;2023-03-01T21:54:43;19.80;;;9.60;;
67986;SDS011;54767;53.800;15.956;2023-03-01T21:57:12;19.50;;;10.10;;
67986;SDS011;54767;53.800;15.956;2023-03-01T21:59:40;20.70;;;10.30;;
67986;SDS011;54767;53.800;15.956;2023-03-01T22:02:11;17.60;;;8.50;;
67986;SDS011;54767;53.800;15.956;2023-03-01T22:04:41;23.40;;;11.70;;
67986;SDS011;54767;53.800;15.956;2023-03-01T22:07:09;20.20;;;11.10;;
67986;SDS011;54767;53.800;15.956;2023-03-01T22:09:37;25.30;;;13.50;;
67986;SDS011;54767;53.800;15.956;2023-03-01T22:12:05;20.50;;;11.20;;
67986;SDS011;54767;53.800;15.956;2023-03-01T22:14:34;19.20;;;10.50;;
67986;SDS011;54767;53.800;15.956;2023-03-01T22:17:08;20.60;;;10.60;;
67986;SDS011;54767;53.800;15.956;2023-03-01T22:19:36;19.60;;;10.60;;
67986;SDS011;54767;53.800;15.956;2023-03-01T22:22:04;19.30;;;10.20;;
67986;SDS011;54767;53.800;15.956;2023-03-01T22:24:32;20.70;;;10.40;;
67986;SDS011;54767;53.800;15.956;2023-03-01T22:27:00;20.10;;;10.70;;
67986;SDS011;54767;53.800;15.956;2023-03-01T22:29:28;20.40;;;11.00;;
67986;SDS011;54767;53.800;15.956;2023-03-01T22:31:57;19.10;;;10.80;;
67986;SDS011;54767;53.800;15.956;2023-03-01T22:34:26;20.40;;;11.70;;
67986;SDS011;54767;53.800;15.956;2023-03-01T22:36:55;23.30;;;12.20;;
67986;SDS011;54767;53.800;15.956;2023-03-01T22:39:23;22.20;;;12.10;;
67986;SDS011;54767;53.800;15.956;2023-03-01T22:41:52;19.80;;;10.70;;
67986;SDS011;54767;53.800;15.956;2023-03-01T22:44:21;19.10;;;10.60;;
67986;SDS011;54767;53.800;15.956;2023-03-01T22:46:50;22.00;;;12.00;;
67986;SDS011;54767;53.800;15.956;2023-03-01T22:49:19;19.10;;;11.10;;
67986;SDS011;54767;53.800;15.956;2023-03-01T22:51:47;20.90;;;11.20;;
67986;SDS011;54767;53.800;15.956;2023-03-01T22:54:16;21.70;;;11.30;;
67986;SDS011;54767;53.800;15.956;2023-03-01T22:56:46;22.80;;;11.70;;
67986;SDS011;54767;53.800;15.956;2023-03-01T22:59:15;22.50;;;11.70;;
67986;SDS011;54767;53.800;15.956;2023-03-01T23:01:47;21.30;;;11.20;;
67986;SDS011;54767;53.800;15.956;2023-03-01T23:04:16;20.10;;;11.10;;
67986;SDS011;54767;53.800;15.956;2023-03-01T23:09:27;21.80;;;11.20;;
67986;SDS011;54767;53.800;15.956;2023-03-01T23:11:58;19.30;;;10.70;;
67986;SDS011;54767;53.800;15.956;2023-03-01T23:14:29;19.50;;;11.20;;
67986;SDS011;54767;53.800;15.956;2023-03-01T23:16:59;18.50;;;9.70;;
67986;SDS011;54767;53.800;15.956;2023-03-01T23:19:28;18.50;;;10.30;;
67986;SDS011;54767;53.800;15.956;2023-03-01T23:21:57;17.40;;;10.20;;
67986;SDS011;54767;53.800;15.956;2023-03-01T23:24:26;19.40;;;11.60;;
67986;SDS011;54767;53.800;15.956;2023-03-01T23:26:59;19.20;;;11.10;;
67986;SDS011;54767;53.800;15.956;2023-03-01T23:29:29;18.20;;;10.10;;
67986;SDS011;54767;53.800;15.956;2023-03-01T23:31:58;17.90;;;9.90;;
67986;SDS011;54767;53.800;15.956;2023-03-01T23:34:27;13.40;;;7.40;;
67986;SDS011;54767;53.800;15.956;2023-03-01T23:36:55;10.90;;;7.30;;
67986;SDS011;54767;53.800;15.956;2023-03-01T23:41:55;11.80;;;7.00;;
67986;SDS011;54767;53.800;15.956;2023-03-01T23:44:24;13.00;;;6.90;;
67986;SDS011;54767;53.800;15.956;2023-03-01T23:46:52;10.30;;;6.50;;
67986;SDS011;54767;53.800;15.956;2023-03-01T23:49:20;11.00;;;6.30;;
67986;SDS011;54767;53.800;15.956;2023-03-01T23:51:50;9.70;;;6.40;;
67986;SDS011;54767;53.800;15.956;2023-03-01T23:54:19;10.90;;;6.40;;
67986;SDS011;54767;53.800;15.956;2023-03-01T23:56:49;9.30;;;6.10;;
67986;SDS011;54767;53.800;15.956;2023-03-01T23:59:19;9.90;;;6.00;;
